sensor_id;sensor_type;location;lat;lon;timestamp;pressure;altitude;pressure_sealevel;temperature;humidity
41573;BME280;27286;47.870;19.006;2023-04-04T00:00:24;99530.81;;;-2.95;76.51
41573;BME280;27286;47.870;19.006;2023-04-04T00:02:49;99537.59;;;-2.96;75.70
41573;BME280;27286;47.870;19.006;2023-04-04T00:05:15;99535.00;;;-3.00;77.08
41573;BME280;27286;47.870;19.006;2023-04-04T00:07:41;99534.91;;;-3.04;77.07
41573;BME280;27286;47.870;19.006;2023-04-04T00:10:07;99537.41;;;-3.08;78.04
41573;BME280;27286;47.870;19.006;2023-04-04T00:12:32;99536.44;;;-3.18;78.82
41573;BME280;27286;47.870;19.006;2023-04-04T00:14:58;99534.63;;;-3.23;78.56
41573;BME280;27286;47.870;19.006;2023-04-04T00:17:23;99532.91;;;-3.24;78.59
41573;BME280;27286;47.870;19.006;2023-04-04T00:19:49;99539.69;;;-3.26;78.18
41573;BME280;27286;47.870;19.006;2023-04-04T00:22:14;99535.44;;;-3.26;77.39
41573;BME280;27286;47.870;19.006;2023-04-04T00:24:40;99543.13;;;-3.21;77.09
41573;BME280;27286;47.870;19.006;2023-04-04T00:27:05;99538.03;;;-3.23;76.64
41573;BME280;27286;47.870;19.006;2023-04-04T00:29:31;99537.16;;;-3.23;77.35
41573;BME280;27286;47.870;19.006;2023-04-04T00:31:58;99543.09;;;-3.24;77.58
41573;BME280;27286;47.870;19.006;2023-04-04T00:34:24;99542.25;;;-3.25;77.54
41573;BME280;27286;47.870;19.006;2023-04-04T00:36:50;99543.06;;;-3.27;77.56
41573;BME280;27286;47.870;19.006;2023-04-04T00:39:17;99552.38;;;-3.28;78.75
41573;BME280;27286;47.870;19.006;2023-04-04T00:41:42;99548.97;;;-3.30;78.84
41573;BME280;27286;47.870;19.006;2023-04-04T00:44:08;99547.25;;;-3.31;79.73
41573;BME280;27286;47.870;19.006;2023-04-04T00:46:33;99550.59;;;-3.35;79.11
41573;BME280;27286;47.870;19.006;2023-04-04T00:48:59;99557.38;;;-3.34;79.51
41573;BME280;27286;47.870;19.006;2023-04-04T00:51:25;99557.44;;;-3.31;80.24
41573;BME280;27286;47.870;19.006;2023-04-04T00:53:51;99566.13;;;-3.18;80.61
41573;BME280;27286;47.870;19.006;2023-04-04T00:56:17;99559.47;;;-3.09;80.34
41573;BME280;27286;47.870;19.006;2023-04-04T00:58:43;99559.66;;;-2.96;79.86
41573;BME280;27286;47.870;19.006;2023-04-04T01:01:09;99559.84;;;-2.84;80.19
41573;BME280;27286;47.870;19.006;2023-04-04T01:03:38;99552.34;;;-2.74;79.46
41573;BME280;27286;47.870;19.006;2023-04-04T01:06:05;99549.94;;;-2.64;79.28
41573;BME280;27286;47.870;19.006;2023-04-04T01:08:31;99553.50;;;-2.52;79.55
41573;BME280;27286;47.870;19.006;2023-04-04T01:10:59;99545.03;;;-2.51;79.84
41573;BME280;27286;47.870;19.006;2023-04-04T01:13:25;99547.66;;;-2.43;79.87
41573;BME280;27286;47.870;19.006;2023-04-04T01:15:51;99548.56;;;-2.38;80.32
41573;BME280;27286;47.870;19.006;2023-04-04T01:18:19;99549.41;;;-2.37;80.39
41573;BME280;27286;47.870;19.006;2023-04-04T01:21:01;99542.59;;;-2.38;81.03
41573;BME280;27286;47.870;19.006;2023-04-04T01:23:45;99543.44;;;-2.39;80.83
41573;BME280;27286;47.870;19.006;2023-04-04T01:26:11;99536.56;;;-2.47;81.12
41573;BME280;27286;47.870;19.006;2023-04-04T01:28:37;99532.19;;;-2.57;81.65
41573;BME280;27286;47.870;19.006;2023-04-04T01:31:05;99531.22;;;-2.68;81.74
41573;BME280;27286;47.870;19.006;2023-04-04T01:33:35;99526.78;;;-2.80;81.20
41573;BME280;27286;47.870;19.006;2023-04-04T01:36:10;99524.13;;;-2.87;81.99
41573;BME280;27286;47.870;19.006;2023-04-04T01:38:58;99520.63;;;-2.95;82.69
41573;BME280;27286;47.870;19.006;2023-04-04T01:41:31;99525.56;;;-3.05;83.08
41573;BME280;27286;47.870;19.006;2023-04-04T01:43:58;99518.69;;;-3.12;83.27
41573;BME280;27286;47.870;19.006;2023-04-04T01:46:24;99516.81;;;-3.22;83.46
41573;BME280;27286;47.870;19.006;2023-04-04T01:48:49;99515.94;;;-3.24;83.33
41573;BME280;27286;47.870;19.006;2023-04-04T01:51:15;99508.16;;;-3.35;83.27
41573;BME280;27286;47.870;19.006;2023-04-04T01:53:41;99511.34;;;-3.48;84.06
41573;BME280;27286;47.870;19.006;2023-04-04T01:56:06;99506.91;;;-3.59;85.06
41573;BME280;27286;47.870;19.006;2023-04-04T01:58:32;99504.28;;;-3.66;85.12
41573;BME280;27286;47.870;19.006;2023-04-04T02:00:57;99500.78;;;-3.71;84.95
41573;BME280;27286;47.870;19.006;2023-04-04T02:03:23;99488.78;;;-3.78;84.68
41573;BME280;27286;47.870;19.006;2023-04-04T02:05:48;99491.34;;;-3.78;85.13
41573;BME280;27286;47.870;19.006;2023-04-04T02:08:14;99485.38;;;-3.80;85.54
41573;BME280;27286;47.870;19.006;2023-04-04T02:10:40;99484.56;;;-3.77;85.61
41573;BME280;27286;47.870;19.006;2023-04-04T02:13:05;99471.00;;;-3.76;85.92
41573;BME280;27286;47.870;19.006;2023-04-04T02:15:34;99469.31;;;-3.76;86.13
41573;BME280;27286;47.870;19.006;2023-04-04T02:18:00;99470.06;;;-3.83;85.63
41573;BME280;27286;47.870;19.006;2023-04-04T02:20:26;99459.75;;;-3.89;85.71
41573;BME280;27286;47.870;19.006;2023-04-04T02:22:53;99452.03;;;-3.95;85.69
41573;BME280;27286;47.870;19.006;2023-04-04T02:25:20;99457.91;;;-3.99;86.00
41573;BME280;27286;47.870;19.006;2023-04-04T02:27:45;99451.13;;;-4.00;85.30
41573;BME280;27286;47.870;19.006;2023-04-04T02:30:11;99439.16;;;-4.04;84.44
41573;BME280;27286;47.870;19.006;2023-04-04T02:32:37;99444.25;;;-4.04;84.29
41573;BME280;27286;47.870;19.006;2023-04-04T02:35:02;99440.78;;;-4.09;84.38
41573;BME280;27286;47.870;19.006;2023-04-04T02:37:28;99421.34;;;-4.06;83.50
41573;BME280;27286;47.870;19.006;2023-04-04T02:39:54;99423.97;;;-4.01;83.78
41573;BME280;27286;47.870;19.006;2023-04-04T02:42:20;99414.72;;;-3.98;83.12
41573;BME280;27286;47.870;19.006;2023-04-04T02:44:45;99415.53;;;-3.99;83.00
41573;BME280;27286;47.870;19.006;2023-04-04T02:47:11;99415.44;;;-4.03;83.18
41573;BME280;27286;47.870;19.006;2023-04-04T02:49:36;99409.44;;;-4.08;83.23
41573;BME280;27286;47.870;19.006;2023-04-04T02:52:02;99416.13;;;-4.13;83.65
41573;BME280;27286;47.870;19.006;2023-04-04T02:54:28;99410.84;;;-4.24;83.67
41573;BME280;27286;47.870;19.006;2023-04-04T02:56:53;99412.50;;;-4.28;83.52
41573;BME280;27286;47.870;19.006;2023-04-04T02:59:19;99404.78;;;-4.34;83.71
41573;BME280;27286;47.870;19.006;2023-04-04T03:01:44;99404.66;;;-4.38;84.73
41573;BME280;27286;47.870;19.006;2023-04-04T03:04:10;99408.06;;;-4.38;85.14
41573;BME280;27286;47.870;19.006;2023-04-04T03:06:35;99397.81;;;-4.42;84.93
41573;BME280;27286;47.870;19.006;2023-04-04T03:09:01;99403.13;;;-4.32;85.64
41573;BME280;27286;47.870;19.006;2023-04-04T03:11:29;99404.94;;;-4.23;85.42
41573;BME280;27286;47.870;19.006;2023-04-04T03:13:55;99405.09;;;-4.15;85.29
41573;BME280;27286;47.870;19.006;2023-04-04T03:16:21;99411.81;;;-4.19;84.63
41573;BME280;27286;47.870;19.006;2023-04-04T03:18:47;99406.63;;;-4.24;84.90
41573;BME280;27286;47.870;19.006;2023-04-04T03:21:12;99416.69;;;-4.30;85.11
41573;BME280;27286;47.870;19.006;2023-04-04T03:23:38;99418.47;;;-4.24;85.17
41573;BME280;27286;47.870;19.006;2023-04-04T03:26:03;99419.28;;;-4.27;85.53
41573;BME280;27286;47.870;19.006;2023-04-04T03:28:29;99420.94;;;-4.29;85.78
41573;BME280;27286;47.870;19.006;2023-04-04T03:30:54;99417.56;;;-4.28;84.86
41573;BME280;27286;47.870;19.006;2023-04-04T03:33:20;99412.38;;;-4.35;85.77
41573;BME280;27286;47.870;19.006;2023-04-04T03:35:45;99413.16;;;-4.38;85.44
41573;BME280;27286;47.870;19.006;2023-04-04T03:38:11;99425.03;;;-4.37;85.36
41573;BME280;27286;47.870;19.006;2023-04-04T03:40:38;99425.00;;;-4.38;85.43
41573;BME280;27286;47.870;19.006;2023-04-04T03:43:06;99419.69;;;-4.52;85.24
41573;BME280;27286;47.870;19.006;2023-04-04T03:45:33;99421.16;;;-4.63;85.64
41573;BME280;27286;47.870;19.006;2023-04-04T03:48:00;99423.59;;;-4.69;86.56
41573;BME280;27286;47.870;19.006;2023-04-04T03:50:25;99424.25;;;-4.78;86.30
41573;BME280;27286;47.870;19.006;2023-04-04T03:52:51;99426.72;;;-4.82;86.82
41573;BME280;27286;47.870;19.006;2023-04-04T03:55:16;99428.34;;;-4.86;86.41
41573;BME280;27286;47.870;19.006;2023-04-04T03:57:42;99431.63;;;-4.90;86.60
41573;BME280;27286;47.870;19.006;2023-04-04T04:00:08;99434.91;;;-4.96;87.00
41573;BME280;27286;47.870;19.006;2023-04-04T04:02:33;99428.13;;;-4.97;87.46
41573;BME280;27286;47.870;19.006;2023-04-04T04:04:59;99440.75;;;-5.00;87.54
41573;BME280;27286;47.870;19.006;2023-04-04T04:07:24;99434.81;;;-5.00;88.10
41573;BME280;27286;47.870;19.006;2023-04-04T04:09:50;99443.28;;;-5.00;88.61
41573;BME280;27286;47.870;19.006;2023-04-04T04:12:15;99439.03;;;-5.01;89.16
41573;BME280;27286;47.870;19.006;2023-04-04T04:14:41;99440.69;;;-5.03;89.32
41573;BME280;27286;47.870;19.006;2023-04-04T04:17:06;99437.31;;;-5.02;89.80
41573;BME280;27286;47.870;19.006;2023-04-04T04:19:32;99437.38;;;-4.99;89.80
41573;BME280;27286;47.870;19.006;2023-04-04T04:21:57;99442.50;;;-4.97;90.48
41573;BME280;27286;47.870;19.006;2023-04-04T04:24:23;99434.03;;;-4.96;90.16
41573;BME280;27286;47.870;19.006;2023-04-04T04:26:48;99444.22;;;-4.95;90.34
41573;BME280;27286;47.870;19.006;2023-04-04T04:29:14;99438.31;;;-4.94;89.83
41573;BME280;27286;47.870;19.006;2023-04-04T04:31:40;99448.59;;;-4.88;90.01
41573;BME280;27286;47.870;19.006;2023-04-04T04:34:06;99441.91;;;-4.84;89.46
41573;BME280;27286;47.870;19.006;2023-04-04T04:36:33;99447.13;;;-4.76;88.59
41573;BME280;27286;47.870;19.006;2023-04-04T04:38:59;99439.63;;;-4.70;88.64
41573;BME280;27286;47.870;19.006;2023-04-04T04:41:24;99441.44;;;-4.66;87.85
41573;BME280;27286;47.870;19.006;2023-04-04T04:43:50;99437.25;;;-4.63;88.23
41573;BME280;27286;47.870;19.006;2023-04-04T04:46:17;99442.44;;;-4.57;87.82
41573;BME280;27286;47.870;19.006;2023-04-04T04:48:42;99444.25;;;-4.52;87.32
41573;BME280;27286;47.870;19.006;2023-04-04T04:51:08;99440.88;;;-4.51;87.10
41573;BME280;27286;47.870;19.006;2023-04-04T04:53:33;99438.41;;;-4.47;86.50
41573;BME280;27286;47.870;19.006;2023-04-04T04:55:59;99445.31;;;-4.40;86.64
41573;BME280;27286;47.870;19.006;2023-04-04T04:58:24;99444.59;;;-4.34;86.42
41573;BME280;27286;47.870;19.006;2023-04-04T05:00:54;99431.91;;;-4.33;85.80
41573;BME280;27286;47.870;19.006;2023-04-04T05:03:20;99434.59;;;-4.24;86.40
41573;BME280;27286;47.870;19.006;2023-04-04T05:05:46;99433.84;;;-4.19;86.60
41573;BME280;27286;47.870;19.006;2023-04-04T05:08:11;99433.16;;;-4.09;86.15
41573;BME280;27286;47.870;19.006;2023-04-04T05:10:37;99427.38;;;-4.01;86.26
41573;BME280;27286;47.870;19.006;2023-04-04T05:13:02;99420.75;;;-3.89;85.66
41573;BME280;27286;47.870;19.006;2023-04-04T05:15:28;99427.69;;;-3.81;85.80
41573;BME280;27286;47.870;19.006;2023-04-04T05:17:53;99418.44;;;-3.76;86.66
41573;BME280;27286;47.870;19.006;2023-04-04T05:20:19;99426.31;;;-3.60;86.45
41573;BME280;27286;47.870;19.006;2023-04-04T05:22:45;99417.28;;;-3.39;85.09
41573;BME280;27286;47.870;19.006;2023-04-04T05:25:11;99410.13;;;-3.04;83.04
41573;BME280;27286;47.870;19.006;2023-04-04T05:27:38;99409.84;;;-2.57;79.66
41573;BME280;27286;47.870;19.006;2023-04-04T05:30:04;99396.88;;;-1.92;74.83
41573;BME280;27286;47.870;19.006;2023-04-04T05:32:30;99398.06;;;-1.47;71.88
41573;BME280;27286;47.870;19.006;2023-04-04T05:34:55;99400.72;;;-1.27;71.15
41573;BME280;27286;47.870;19.006;2023-04-04T05:37:21;99394.09;;;-0.88;66.36
41573;BME280;27286;47.870;19.006;2023-04-04T05:39:46;99401.88;;;-0.59;65.92
41573;BME280;27286;47.870;19.006;2023-04-04T05:42:13;99403.63;;;-0.40;65.62
41573;BME280;27286;47.870;19.006;2023-04-04T05:44:38;99401.94;;;-0.29;66.73
41573;BME280;27286;47.870;19.006;2023-04-04T05:47:04;99392.59;;;-0.13;63.61
41573;BME280;27286;47.870;19.006;2023-04-04T05:49:29;99390.88;;;-0.04;65.03
41573;BME280;27286;47.870;19.006;2023-04-04T05:51:54;99395.16;;;0.10;64.80
41573;BME280;27286;47.870;19.006;2023-04-04T05:54:23;99389.16;;;0.32;62.28
41573;BME280;27286;47.870;19.006;2023-04-04T05:56:48;99397.69;;;0.51;60.29
41573;BME280;27286;47.870;19.006;2023-04-04T05:59:14;99401.06;;;0.71;62.07
41573;BME280;27286;47.870;19.006;2023-04-04T06:01:40;99407.88;;;0.86;60.99
41573;BME280;27286;47.870;19.006;2023-04-04T06:04:05;99413.81;;;1.02;59.06
41573;BME280;27286;47.870;19.006;2023-04-04T06:06:34;99408.59;;;1.25;56.44
41573;BME280;27286;47.870;19.006;2023-04-04T06:09:00;99416.16;;;1.47;55.08
41573;BME280;27286;47.870;19.006;2023-04-04T06:11:25;99411.69;;;1.83;51.96
41573;BME280;27286;47.870;19.006;2023-04-04T06:13:51;99410.63;;;2.15;51.88
41573;BME280;27286;47.870;19.006;2023-04-04T06:16:19;99406.97;;;2.43;51.11
41573;BME280;27286;47.870;19.006;2023-04-04T06:18:45;99413.56;;;2.71;48.36
41573;BME280;27286;47.870;19.006;2023-04-04T06:21:10;99426.97;;;2.98;48.05
41573;BME280;27286;47.870;19.006;2023-04-04T06:23:37;99423.22;;;3.28;49.03
41573;BME280;27286;47.870;19.006;2023-04-04T06:26:03;99423.75;;;3.54;46.29
41573;BME280;27286;47.870;19.006;2023-04-04T06:28:28;99421.63;;;3.84;45.39
41573;BME280;27286;47.870;19.006;2023-04-04T06:30:54;99417.09;;;4.00;45.95
41573;BME280;27286;47.870;19.006;2023-04-04T06:33:19;99415.97;;;4.16;46.36
41573;BME280;27286;47.870;19.006;2023-04-04T06:35:45;99415.66;;;4.36;45.96
41573;BME280;27286;47.870;19.006;2023-04-04T06:38:10;99416.44;;;4.41;44.24
41573;BME280;27286;47.870;19.006;2023-04-04T06:40:36;99425.78;;;4.48;43.92
41573;BME280;27286;47.870;19.006;2023-04-04T06:43:01;99427.09;;;4.72;44.14
41573;BME280;27286;47.870;19.006;2023-04-04T06:45:27;99422.47;;;4.91;45.60
41573;BME280;27286;47.870;19.006;2023-04-04T06:47:54;99415.81;;;5.24;42.45
41573;BME280;27286;47.870;19.006;2023-04-04T06:50:20;99420.06;;;6.07;40.10
41573;BME280;27286;47.870;19.006;2023-04-04T06:52:46;99426.84;;;7.44;37.58
41573;BME280;27286;47.870;19.006;2023-04-04T06:55:12;99411.88;;;8.90;34.49
41573;BME280;27286;47.870;19.006;2023-04-04T06:57:38;99412.72;;;10.06;33.84
41573;BME280;27286;47.870;19.006;2023-04-04T07:00:04;99417.34;;;11.04;31.96
41573;BME280;27286;47.870;19.006;2023-04-04T07:02:30;99397.03;;;12.43;29.94
41573;BME280;27286;47.870;19.006;2023-04-04T07:04:55;99387.84;;;12.53;28.69
41573;BME280;27286;47.870;19.006;2023-04-04T07:07:21;99372.66;;;12.08;28.69
41573;BME280;27286;47.870;19.006;2023-04-04T07:09:46;99360.72;;;12.38;28.20
41573;BME280;27286;47.870;19.006;2023-04-04T07:12:12;99367.59;;;12.91;29.30
41573;BME280;27286;47.870;19.006;2023-04-04T07:14:37;99370.94;;;13.28;27.80
41573;BME280;27286;47.870;19.006;2023-04-04T07:17:03;99375.28;;;13.44;26.50
41573;BME280;27286;47.870;19.006;2023-04-04T07:19:28;99369.78;;;13.49;26.23
41573;BME280;27286;47.870;19.006;2023-04-04T07:21:54;99373.94;;;13.20;27.94
41573;BME280;27286;47.870;19.006;2023-04-04T07:24:20;99378.47;;;13.34;26.64
41573;BME280;27286;47.870;19.006;2023-04-04T07:26:45;99371.50;;;13.00;27.12
41573;BME280;27286;47.870;19.006;2023-04-04T07:29:11;99374.25;;;13.47;28.37
41573;BME280;27286;47.870;19.006;2023-04-04T07:31:37;99386.63;;;13.28;29.51
41573;BME280;27286;47.870;19.006;2023-04-04T07:34:03;99381.84;;;13.51;27.89
41573;BME280;27286;47.870;19.006;2023-04-04T07:36:28;99387.84;;;13.69;26.55
41573;BME280;27286;47.870;19.006;2023-04-04T07:38:53;99378.69;;;12.96;26.50
41573;BME280;27286;47.870;19.006;2023-04-04T07:41:20;99381.72;;;12.00;28.19
41573;BME280;27286;47.870;19.006;2023-04-04T07:43:45;99385.22;;;12.70;28.72
41573;BME280;27286;47.870;19.006;2023-04-04T07:46:11;99383.50;;;12.86;29.85
41573;BME280;27286;47.870;19.006;2023-04-04T07:48:37;99390.72;;;12.99;28.96
41573;BME280;27286;47.870;19.006;2023-04-04T07:51:03;99393.06;;;13.53;29.64
41573;BME280;27286;47.870;19.006;2023-04-04T07:53:31;99390.50;;;12.86;29.66
41573;BME280;27286;47.870;19.006;2023-04-04T07:55:57;99393.47;;;11.90;29.89
41573;BME280;27286;47.870;19.006;2023-04-04T07:58:22;99395.41;;;13.42;29.64
41573;BME280;27286;47.870;19.006;2023-04-04T08:00:48;99391.75;;;12.96;28.70
41573;BME280;27286;47.870;19.006;2023-04-04T08:03:13;99401.47;;;11.87;28.70
41573;BME280;27286;47.870;19.006;2023-04-04T08:05:40;99404.00;;;10.71;33.44
41573;BME280;27286;47.870;19.006;2023-04-04T08:08:06;99397.09;;;10.50;32.23
41573;BME280;27286;47.870;19.006;2023-04-04T08:10:31;99397.78;;;10.11;32.78
41573;BME280;27286;47.870;19.006;2023-04-04T08:12:57;99392.88;;;9.82;33.83
41573;BME280;27286;47.870;19.006;2023-04-04T08:15:23;99391.56;;;9.48;35.00
41573;BME280;27286;47.870;19.006;2023-04-04T08:17:48;99390.50;;;9.30;33.83
41573;BME280;27286;47.870;19.006;2023-04-04T08:20:14;99395.28;;;9.18;34.96
41573;BME280;27286;47.870;19.006;2023-04-04T08:22:40;99400.41;;;8.96;35.94
41573;BME280;27286;47.870;19.006;2023-04-04T08:25:06;99394.63;;;8.88;36.05
41573;BME280;27286;47.870;19.006;2023-04-04T08:27:32;99396.94;;;8.70;34.57
41573;BME280;27286;47.870;19.006;2023-04-04T08:29:58;99396.53;;;9.08;34.83
41573;BME280;27286;47.870;19.006;2023-04-04T08:32:23;99390.34;;;10.02;36.27
41573;BME280;27286;47.870;19.006;2023-04-04T08:34:49;99387.31;;;10.77;35.72
41573;BME280;27286;47.870;19.006;2023-04-04T08:37:15;99395.69;;;10.63;34.39
41573;BME280;27286;47.870;19.006;2023-04-04T08:39:41;99391.22;;;11.06;33.30
41573;BME280;27286;47.870;19.006;2023-04-04T08:42:06;99373.53;;;11.89;31.25
41573;BME280;27286;47.870;19.006;2023-04-04T08:44:34;99368.50;;;13.07;30.64
41573;BME280;27286;47.870;19.006;2023-04-04T08:47:01;99369.00;;;14.56;29.09
41573;BME280;27286;47.870;19.006;2023-04-04T08:49:31;99365.16;;;15.62;26.68
41573;BME280;27286;47.870;19.006;2023-04-04T08:51:58;99366.47;;;14.84;26.22
41573;BME280;27286;47.870;19.006;2023-04-04T08:54:27;99365.31;;;13.98;27.95
41573;BME280;27286;47.870;19.006;2023-04-04T08:56:54;99368.78;;;13.51;28.76
41573;BME280;27286;47.870;19.006;2023-04-04T08:59:20;99372.22;;;13.36;29.16
41573;BME280;27286;47.870;19.006;2023-04-04T09:01:46;99376.53;;;13.53;26.69
41573;BME280;27286;47.870;19.006;2023-04-04T09:04:11;99368.03;;;13.16;27.80
41573;BME280;27286;47.870;19.006;2023-04-04T09:06:37;99362.19;;;15.12;25.82
41573;BME280;27286;47.870;19.006;2023-04-04T09:09:03;99352.59;;;15.39;26.03
41573;BME280;27286;47.870;19.006;2023-04-04T09:11:32;99355.94;;;14.70;27.21
41573;BME280;27286;47.870;19.006;2023-04-04T09:13:59;99352.81;;;14.03;26.84
41573;BME280;27286;47.870;19.006;2023-04-04T09:16:28;99362.84;;;14.41;26.70
41573;BME280;27286;47.870;19.006;2023-04-04T09:18:54;99351.88;;;17.10;23.83
41573;BME280;27286;47.870;19.006;2023-04-04T09:21:19;99344.25;;;17.43;24.94
41573;BME280;27286;47.870;19.006;2023-04-04T09:23:45;99345.09;;;16.55;24.99
41573;BME280;27286;47.870;19.006;2023-04-04T09:26:11;99346.97;;;18.39;24.61
41573;BME280;27286;47.870;19.006;2023-04-04T09:28:41;99345.22;;;18.51;24.28
41573;BME280;27286;47.870;19.006;2023-04-04T09:31:07;99339.94;;;19.08;22.77
41573;BME280;27286;47.870;19.006;2023-04-04T09:33:34;99334.63;;;16.68;22.86
41573;BME280;27286;47.870;19.006;2023-04-04T09:36:07;99332.75;;;17.57;24.70
41573;BME280;27286;47.870;19.006;2023-04-04T09:38:36;99336.47;;;19.08;23.29
41573;BME280;27286;47.870;19.006;2023-04-04T09:41:05;99323.00;;;18.07;21.80
41573;BME280;27286;47.870;19.006;2023-04-04T09:43:32;99322.94;;;17.23;24.30
41573;BME280;27286;47.870;19.006;2023-04-04T09:45:59;99327.59;;;16.81;24.48
41573;BME280;27286;47.870;19.006;2023-04-04T09:48:32;99327.81;;;19.28;23.77
41573;BME280;27286;47.870;19.006;2023-04-04T09:50:59;99319.28;;;18.45;24.86
41573;BME280;27286;47.870;19.006;2023-04-04T09:53:25;99318.09;;;18.14;24.39
41573;BME280;27286;47.870;19.006;2023-04-04T09:55:53;99317.63;;;19.35;22.52
41573;BME280;27286;47.870;19.006;2023-04-04T09:58:26;99317.88;;;19.20;22.56
41573;BME280;27286;47.870;19.006;2023-04-04T10:00:55;99316.16;;;18.04;23.18
41573;BME280;27286;47.870;19.006;2023-04-04T10:03:22;99298.38;;;18.54;22.88
41573;BME280;27286;47.870;19.006;2023-04-04T10:05:59;99299.50;;;19.41;22.75
41573;BME280;27286;47.870;19.006;2023-04-04T10:08:26;99298.31;;;20.00;21.82
41573;BME280;27286;47.870;19.006;2023-04-04T10:11:03;99292.94;;;20.85;21.43
41573;BME280;27286;47.870;19.006;2023-04-04T10:13:30;99286.59;;;20.76;20.26
41573;BME280;27286;47.870;19.006;2023-04-04T10:16:00;99300.81;;;20.75;19.51
41573;BME280;27286;47.870;19.006;2023-04-04T10:18:31;99294.78;;;21.24;21.28
41573;BME280;27286;47.870;19.006;2023-04-04T10:20:59;99289.34;;;22.53;20.02
41573;BME280;27286;47.870;19.006;2023-04-04T10:23:25;99276.69;;;23.94;17.99
41573;BME280;27286;47.870;19.006;2023-04-04T10:25:56;99269.19;;;23.89;17.35
41573;BME280;27286;47.870;19.006;2023-04-04T10:28:22;99264.84;;;24.06;16.84
41573;BME280;27286;47.870;19.006;2023-04-04T10:30:51;99269.91;;;23.64;18.22
41573;BME280;27286;47.870;19.006;2023-04-04T10:36:20;99284.75;;;21.87;19.95
41573;BME280;27286;47.870;19.006;2023-04-04T10:38:54;99277.84;;;21.37;18.43
41573;BME280;27286;47.870;19.006;2023-04-04T10:41:24;99280.56;;;19.36;19.98
41573;BME280;27286;47.870;19.006;2023-04-04T10:43:51;99285.44;;;18.62;20.35
41573;BME280;27286;47.870;19.006;2023-04-04T10:46:20;99278.00;;;18.10;22.27
41573;BME280;27286;47.870;19.006;2023-04-04T10:48:47;99275.59;;;17.47;23.40
41573;BME280;27286;47.870;19.006;2023-04-04T10:51:14;99285.09;;;17.00;24.17
41573;BME280;27286;47.870;19.006;2023-04-04T10:53:40;99274.78;;;17.46;22.85
41573;BME280;27286;47.870;19.006;2023-04-04T10:56:06;99270.00;;;17.64;20.99
41573;BME280;27286;47.870;19.006;2023-04-04T10:58:38;99267.69;;;17.23;21.89
41573;BME280;27286;47.870;19.006;2023-04-04T11:01:06;99265.81;;;17.12;21.63
41573;BME280;27286;47.870;19.006;2023-04-04T11:03:31;99270.00;;;17.64;22.64
41573;BME280;27286;47.870;19.006;2023-04-04T11:05:58;99262.31;;;18.09;23.49
41573;BME280;27286;47.870;19.006;2023-04-04T11:08:27;99259.47;;;18.69;23.77
41573;BME280;27286;47.870;19.006;2023-04-04T11:10:54;99251.63;;;19.57;22.77
41573;BME280;27286;47.870;19.006;2023-04-04T11:13:39;99250.84;;;19.98;22.36
41573;BME280;27286;47.870;19.006;2023-04-04T11:16:23;99252.88;;;20.06;19.75
41573;BME280;27286;47.870;19.006;2023-04-04T11:18:48;99243.47;;;19.38;18.75
41573;BME280;27286;47.870;19.006;2023-04-04T11:21:18;99244.00;;;18.76;21.13
41573;BME280;27286;47.870;19.006;2023-04-04T11:28:50;99253.97;;;19.71;18.30
41573;BME280;27286;47.870;19.006;2023-04-04T11:34:12;99251.44;;;19.15;19.89
41573;BME280;27286;47.870;19.006;2023-04-04T11:39:26;99255.03;;;16.91;23.47
41573;BME280;27286;47.870;19.006;2023-04-04T11:42:12;99252.25;;;17.05;21.55
41573;BME280;27286;47.870;19.006;2023-04-04T11:44:41;99243.25;;;18.62;22.80
41573;BME280;27286;47.870;19.006;2023-04-04T11:47:10;99235.78;;;19.57;21.63
41573;BME280;27286;47.870;19.006;2023-04-04T11:49:40;99240.50;;;20.69;21.93
41573;BME280;27286;47.870;19.006;2023-04-04T11:52:14;99232.22;;;21.33;20.85
41573;BME280;27286;47.870;19.006;2023-04-04T11:54:41;99233.25;;;22.29;19.63
41573;BME280;27286;47.870;19.006;2023-04-04T11:57:10;99216.56;;;23.30;15.71
41573;BME280;27286;47.870;19.006;2023-04-04T11:59:41;99217.00;;;23.25;17.86
41573;BME280;27286;47.870;19.006;2023-04-04T12:02:10;99213.50;;;22.97;17.84
41573;BME280;27286;47.870;19.006;2023-04-04T12:04:39;99224.84;;;22.52;19.51
41573;BME280;27286;47.870;19.006;2023-04-04T12:07:06;99216.56;;;21.70;18.62
41573;BME280;27286;47.870;19.006;2023-04-04T12:09:32;99216.84;;;22.06;18.51
41573;BME280;27286;47.870;19.006;2023-04-04T12:11:58;99210.84;;;22.60;17.04
41573;BME280;27286;47.870;19.006;2023-04-04T12:14:24;99201.16;;;22.88;16.01
41573;BME280;27286;47.870;19.006;2023-04-04T12:16:54;99205.09;;;22.65;16.09
41573;BME280;27286;47.870;19.006;2023-04-04T12:19:24;99204.78;;;22.77;16.87
41573;BME280;27286;47.870;19.006;2023-04-04T12:21:51;99212.19;;;23.11;16.90
41573;BME280;27286;47.870;19.006;2023-04-04T12:24:16;99199.41;;;23.24;16.65
41573;BME280;27286;47.870;19.006;2023-04-04T12:26:44;99200.31;;;22.78;16.54
41573;BME280;27286;47.870;19.006;2023-04-04T12:29:11;99191.91;;;22.92;17.89
41573;BME280;27286;47.870;19.006;2023-04-04T12:31:40;99195.91;;;21.64;18.25
41573;BME280;27286;47.870;19.006;2023-04-04T12:34:06;99192.59;;;19.79;19.62
41573;BME280;27286;47.870;19.006;2023-04-04T12:36:36;99203.16;;;18.13;20.15
41573;BME280;27286;47.870;19.006;2023-04-04T12:39:08;99204.75;;;16.45;21.67
41573;BME280;27286;47.870;19.006;2023-04-04T12:41:34;99209.00;;;15.70;22.88
41573;BME280;27286;47.870;19.006;2023-04-04T12:44:02;99214.56;;;15.24;25.20
41573;BME280;27286;47.870;19.006;2023-04-04T12:46:34;99204.50;;;15.03;27.97
41573;BME280;27286;47.870;19.006;2023-04-04T12:49:00;99200.63;;;15.09;24.40
41573;BME280;27286;47.870;19.006;2023-04-04T12:51:32;99196.22;;;14.83;25.84
41573;BME280;27286;47.870;19.006;2023-04-04T12:53:59;99199.22;;;14.62;21.98
41573;BME280;27286;47.870;19.006;2023-04-04T12:56:25;99197.59;;;14.31;24.11
41573;BME280;27286;47.870;19.006;2023-04-04T12:58:51;99200.16;;;14.03;22.66
41573;BME280;27286;47.870;19.006;2023-04-04T13:01:19;99199.00;;;13.78;24.12